Trinidad, CO

8:40 PM MDT on September 21, 2014 (GMT -0600)
Stokes | Change Station
CLOSE
Current Station
Airport
Location: Trinidad,
Elevation: 5761 ft
Nearby Weather Stations

Elev 5761 ft 37.26 °N, 104.33 °W | Updated 46 minutes ago

Mostly Cloudy
Mostly Cloudy
61 °F
Feels Like 61 °F
N
8
Wind Variable Wind from West

Today
High -- | Low -- °F
--% Chance of Precip.
Yesterday
High -- | Low -- °F
Precip. -- in
6:44 AM 6:55 PM
Waning Crescent, 4% visible
Pressure 30.19 in
Visibility 10.0 miles
Clouds Scattered Clouds 10000 ft
Dew Point 58 °F
Humidity 90%
Rainfall 0.19 in
Snow Depth 0 in , 0 in , 0 in
UV 0 out of 12
Pollen 4.50 out of 12
Air Quality Not available.
Flu Activity Not available.
METAR KTAD 220154Z AUTO 27007KT 10SM SCT100 16/14 A3035 RMK AO2 RAE31 SLP222 P0001 T01610144

More Conditions Fewer Conditions

Pressure 30.19 in
Visibility 10.0 miles
Clouds Scattered Clouds 10000 ft
Dew Point 58 °F
Humidity 90%
Rainfall 0.19 in
Snow Depth 0 in , 0 in , 0 in
UV 0 out of 12
Pollen 4.50 out of 12
Air Quality Not available.
Flu Activity Not available.
METAR KTAD 220154Z AUTO 27007KT 10SM SCT100 16/14 A3035 RMK AO2 RAE31 SLP222 P0001 T01610144

More Conditions Fewer Conditions

10-Day Weather Forecast

Almanac

Astronomy

Sep. 21, 2014 Rise Set
Actual Time 6:44 AM MDT 6:55 PM MDT
Civil Twilight 6:18 AM MDT 7:21 PM MDT
Nautical Twilight 5:47 AM MDT 7:52 PM MDT
Astronomical Twilight 5:16 AM MDT 8:22 PM MDT
Moon 4:22 AM MDT (9/21) 5:31 PM MDT (9/21)
Length of Visible Light 13h 03m
Length of Day
12h 11m
Tomorrow will be 2m 22s shorter.
Waning Crescent, 4% of the Moon is Illuminated
Today
Waning Crescent
Sep 24
New
Oct 1
First Quarter
Oct 8
Full
Oct 15
Last Quarter

Today's Extremes

State Highs State Lows

Community

WunderPhotos

Upload Photos

1,755,371 photos uploaded!

WunderBlogs® & News

Nearby

Snow Depth

Station Depth Elevation
Spud Mountain 0 in 10660 ft
El Diente Peak 0 in 10200 ft
Jones Pass 0 in 10400 ft
Dry Lake 0 in 8400 ft
Middle Fork Camp 0 in 9000 ft

Earthquake Activity

City Distance Mag. Time & Date
No recent earthquake activity has been reported nearby.
Minimum magnitude displayed is 2.5.

Coastal Water Temperatures

Place Temperature
No Stations Reporting

Nearby Weather Stations